Time;durP1;ratioP1;P1;durP2;ratioP2;P2;SDS_P1;SDS_P2;PMS_P1;PMS_P2;Temp;Humidity;BMP_temperature;BMP_pressure;BME280_temperature;BME280_humidity;BME280_pressure;Samples;Min_cycle;Max_cycle;Signal;HPM_P1;HPM_P2
2021/06/15 00:00:18;;;;;;;4.10;1.42;;;22.30;56.20;;;;;;4938262;29;20043;-58
2021/06/15 00:02:45;;;;;;;7.97;2.17;;;22.30;56.80;;;;;;4940447;28;20118;-58
2021/06/15 00:05:12;;;;;;;6.45;1.75;;;22.30;56.30;;;;;;4939842;29;20038;-58
2021/06/15 00:07:39;;;;;;;4.70;1.45;;;22.20;56.30;;;;;;4940377;29;20046;-59
2021/06/15 00:10:17;;;;;;;5.90;1.60;;;22.20;56.40;;;;;;4922770;29;20035;-58
2021/06/15 00:12:43;;;;;;;5.53;2.05;;;22.20;56.30;;;;;;4942824;29;20043;-62
2021/06/15 00:15:12;;;;;;;4.72;1.52;;;22.20;56.30;;;;;;4944544;29;20090;-58
2021/06/15 00:17:37;;;;;;;3.88;1.52;;;22.20;56.30;;;;;;4944086;29;20129;-58
2021/06/15 00:20:05;;;;;;;5.95;1.27;;;22.20;56.30;;;;;;4943300;29;20109;-59
2021/06/15 00:22:31;;;;;;;8.00;1.45;;;22.20;56.20;;;;;;4943521;29;20075;-58
2021/06/15 00:25:12;;;;;;;5.30;1.63;;;22.20;56.20;;;;;;4943975;29;20047;-58
2021/06/15 00:27:38;;;;;;;4.88;1.10;;;22.10;56.20;;;;;;4942459;29;20563;-58
2021/06/15 00:30:15;;;;;;;5.13;1.50;;;22.10;56.70;;;;;;4944176;29;20040;-58
2021/06/15 00:32:48;;;;;;;3.05;1.42;;;22.10;56.20;;;;;;4943178;29;20043;-58
2021/06/15 00:35:25;;;;;;;3.63;1.10;;;22.10;56.30;;;;;;4943300;29;20081;-58
2021/06/15 00:37:52;;;;;;;4.78;1.63;;;22.00;56.30;;;;;;4944271;29;20071;-58
2021/06/15 00:40:18;;;;;;;5.45;1.52;;;22.00;56.30;;;;;;4943138;29;20039;-58
2021/06/15 00:42:44;;;;;;;3.35;1.20;;;22.00;56.20;;;;;;4942212;29;20065;-58
2021/06/15 00:45:13;;;;;;;5.78;1.65;;;22.00;56.10;;;;;;4943097;29;22475;-58
2021/06/15 00:47:44;;;;;;;5.88;1.50;;;22.00;56.20;;;;;;4941871;29;20039;-58
2021/06/15 00:50:10;;;;;;;3.53;1.08;;;22.00;56.40;;;;;;4943523;29;20063;-58
2021/06/15 00:52:36;;;;;;;9.32;1.30;;;22.00;56.40;;;;;;4943465;29;20048;-58
2021/06/15 00:55:03;;;;;;;8.55;1.50;;;22.00;56.40;;;;;;4942168;29;20057;-58
2021/06/15 00:57:29;;;;;;;5.35;1.08;;;21.90;56.10;;;;;;4943723;29;22187;-58
2021/06/15 00:59:56;;;;;;;6.15;1.10;;;21.90;56.20;;;;;;4924362;29;20039;-58
2021/06/15 01:02:27;;;;;;;4.65;0.98;;;21.90;56.30;;;;;;4941738;28;20480;-58
2021/06/15 01:04:54;;;;;;;6.30;1.23;;;21.90;56.30;;;;;;4941759;29;20047;-58
2021/06/15 01:07:34;;;;;;;7.93;1.00;;;21.90;56.40;;;;;;4942145;29;20099;-58
2021/06/15 01:10:13;;;;;;;5.35;0.98;;;21.90;56.30;;;;;;4941869;29;20047;-58
2021/06/15 01:13:08;;;;;;;5.07;1.23;;;21.90;56.30;;;;;;4941988;29;20089;-58
2021/06/15 01:15:43;;;;;;;6.75;1.30;;;21.80;56.30;;;;;;4943401;29;20035;-58
2021/06/15 01:18:13;;;;;;;5.00;1.20;;;21.80;56.40;;;;;;4941658;29;20035;-58
2021/06/15 01:20:46;;;;;;;7.65;1.10;;;21.80;56.40;;;;;;4941901;29;20109;-58
2021/06/15 01:23:54;;;;;;;7.15;1.77;;;21.80;56.40;;;;;;4942806;28;20054;-58
2021/06/15 01:26:58;;;;;;;6.72;1.40;;;21.80;56.30;;;;;;4898681;29;20039;-58
2021/06/15 01:29:35;;;;;;;6.55;1.05;;;21.70;56.40;;;;;;4941857;29;20075;-59
2021/06/15 01:32:13;;;;;;;4.47;0.98;;;21.80;56.60;;;;;;4942971;29;20043;-58
2021/06/15 01:34:43;;;;;;;7.50;1.60;;;21.70;56.60;;;;;;4940524;29;20485;-58
2021/06/15 01:37:22;;;;;;;5.07;1.50;;;21.70;56.60;;;;;;4941198;29;20094;-58
2021/06/15 01:39:54;;;;;;;3.95;1.20;;;21.70;56.60;;;;;;4940786;29;20039;-58
2021/06/15 01:42:40;;;;;;;6.07;1.30;;;21.70;56.70;;;;;;4941482;29;20130;-58
2021/06/15 01:45:15;;;;;;;3.42;0.70;;;21.70;56.40;;;;;;4936081;29;20128;-58
2021/06/15 01:48:06;;;;;;;5.43;1.50;;;21.70;56.70;;;;;;4941804;29;20062;-58
2021/06/15 01:50:35;;;;;;;3.45;1.17;;;21.70;56.60;;;;;;4941455;29;20048;-58
2021/06/15 01:53:05;;;;;;;7.38;1.38;;;21.70;56.70;;;;;;4941806;29;20048;-58
2021/06/15 01:55:34;;;;;;;6.28;1.20;;;21.70;56.60;;;;;;4941203;29;20040;-58
2021/06/15 01:58:02;;;;;;;7.25;1.33;;;21.70;56.60;;;;;;4940955;29;20040;-58
2021/06/15 02:00:30;;;;;;;3.83;1.13;;;21.70;56.50;;;;;;4941333;29;20039;-58
2021/06/15 02:03:00;;;;;;;4.90;1.13;;;21.70;56.40;;;;;;4938953;28;20082;-58
2021/06/15 02:05:33;;;;;;;5.43;1.65;;;21.70;56.50;;;;;;4942530;29;20058;-58
2021/06/15 02:08:03;;;;;;;2.55;0.95;;;21.60;56.50;;;;;;4942189;29;20042;-58
2021/06/15 02:10:31;;;;;;;5.45;1.17;;;21.60;56.50;;;;;;4939705;29;20046;-58
2021/06/15 02:13:06;;;;;;;5.32;1.08;;;21.60;56.60;;;;;;4940210;29;21136;-58
2021/06/15 02:15:36;;;;;;;4.75;1.60;;;21.60;56.60;;;;;;4942112;29;20134;-58
2021/06/15 02:18:03;;;;;;;5.05;1.10;;;21.60;56.70;;;;;;4941393;29;20403;-58
2021/06/15 02:20:37;;;;;;;7.75;1.10;;;21.50;56.70;;;;;;4939348;29;20043;-58
2021/06/15 02:23:04;;;;;;;4.30;0.82;;;21.50;56.70;;;;;;4941292;29;20052;-58
2021/06/15 02:25:59;;;;;;;3.10;0.88;;;21.50;56.80;;;;;;4927761;29;20472;-58
2021/06/15 02:28:45;;;;;;;5.28;1.17;;;21.50;56.80;;;;;;4925596;29;20083;-58
2021/06/15 02:31:17;;;;;;;4.68;0.95;;;21.50;56.80;;;;;;4940786;29;20113;-58
2021/06/15 02:33:51;;;;;;;3.30;0.90;;;21.50;56.80;;;;;;4922937;29;20495;-58
2021/06/15 02:36:30;;;;;;;7.53;1.17;;;21.50;56.70;;;;;;4940424;29;20036;-58
2021/06/15 02:39:27;;;;;;;4.97;1.02;;;21.50;56.80;;;;;;4939135;29;20183;-58
2021/06/15 02:41:55;;;;;;;3.85;1.10;;;21.60;56.50;;;;;;4941076;29;20062;-58
2021/06/15 02:44:24;;;;;;;6.28;1.23;;;21.50;56.60;;;;;;4941712;29;20046;-58
2021/06/15 02:46:55;;;;;;;4.57;1.13;;;21.50;56.60;;;;;;4939404;29;20147;-58
2021/06/15 02:49:25;;;;;;;5.65;1.58;;;21.50;57.00;;;;;;4939962;29;20082;-58
2021/06/15 02:51:58;;;;;;;5.25;1.00;;;21.50;56.70;;;;;;4939448;29;20066;-58
2021/06/15 02:54:27;;;;;;;5.30;1.30;;;21.50;56.80;;;;;;4940448;29;20058;-58
2021/06/15 02:56:55;;;;;;;5.88;0.80;;;21.40;56.80;;;;;;4921645;29;20040;-58
2021/06/15 02:59:21;;;;;;;5.70;1.25;;;21.40;56.90;;;;;;4940197;29;20039;-58
2021/06/15 03:01:51;;;;;;;4.78;1.30;;;21.40;56.90;;;;;;4941271;29;20502;-58
2021/06/15 03:04:18;;;;;;;6.63;1.42;;;21.40;56.90;;;;;;4940569;29;20054;-57
2021/06/15 03:06:45;;;;;;;3.85;1.35;;;21.40;57.00;;;;;;4923442;29;20047;-57
2021/06/15 03:09:12;;;;;;;5.95;1.00;;;21.40;57.00;;;;;;4939331;29;20054;-57
2021/06/15 03:11:47;;;;;;;5.90;1.73;;;21.40;57.10;;;;;;4941313;29;20062;-58
2021/06/15 03:14:20;;;;;;;7.28;1.20;;;21.40;56.90;;;;;;4941460;29;20032;-58
2021/06/15 03:16:47;;;;;;;5.15;1.38;;;21.40;57.00;;;;;;4940397;29;20076;-57
2021/06/15 03:19:31;;;;;;;5.60;1.13;;;21.40;57.00;;;;;;4941128;29;20062;-58
2021/06/15 03:22:09;;;;;;;4.68;1.52;;;21.40;57.00;;;;;;4939756;29;20044;-57
2021/06/15 03:25:02;;;;;;;7.22;1.05;;;21.40;56.90;;;;;;4940334;29;20074;-58
2021/06/15 03:27:40;;;;;;;6.15;1.27;;;21.40;56.70;;;;;;4939143;29;20047;-59
2021/06/15 03:30:26;;;;;;;4.07;1.00;;;21.30;56.90;;;;;;4926035;29;20499;-58
2021/06/15 03:33:16;;;;;;;7.85;1.55;;;21.30;57.10;;;;;;4925559;29;20040;-58
2021/06/15 03:35:47;;;;;;;4.28;1.13;;;21.30;57.10;;;;;;4940689;29;20039;-58
2021/06/15 03:38:14;;;;;;;5.82;1.17;;;21.30;57.10;;;;;;4940404;29;20047;-58
2021/06/15 03:40:48;;;;;;;6.57;1.60;;;21.30;56.90;;;;;;4939946;29;20040;-57
2021/06/15 03:43:16;;;;;;;3.05;0.85;;;21.40;57.00;;;;;;4939569;29;20047;-57
2021/06/15 03:45:47;;;;;;;5.30;1.10;;;21.30;56.80;;;;;;4938115;28;20038;-58
2021/06/15 03:48:16;;;;;;;4.10;1.67;;;21.30;56.90;;;;;;4940449;29;20065;-58
2021/06/15 03:50:42;;;;;;;5.63;1.05;;;21.30;56.80;;;;;;4938540;29;20050;-57
2021/06/15 03:53:10;;;;;;;8.48;1.42;;;21.30;56.70;;;;;;4939326;29;20043;-58
2021/06/15 03:55:39;;;;;;;5.72;1.42;;;21.40;56.90;;;;;;4940514;29;20074;-58
2021/06/15 03:58:08;;;;;;;5.00;1.40;;;21.30;56.80;;;;;;4938540;29;20039;-58
2021/06/15 04:00:37;;;;;;;5.78;1.15;;;21.30;56.70;;;;;;4921648;29;20153;-58
2021/06/15 04:03:07;;;;;;;9.20;2.05;;;21.30;56.70;;;;;;4938926;29;20043;-58
2021/06/15 04:05:36;;;;;;;5.43;1.65;;;21.30;56.60;;;;;;4938493;29;20039;-58
2021/06/15 04:08:06;;;;;;;5.13;1.05;;;21.30;56.60;;;;;;4938479;29;20441;-58
2021/06/15 04:10:33;;;;;;;4.50;1.33;;;21.30;56.70;;;;;;4939848;29;20039;-58
2021/06/15 04:13:02;;;;;;;8.20;1.50;;;21.30;56.70;;;;;;4940825;29;20488;-58
2021/06/15 04:15:28;;;;;;;7.53;1.50;;;21.30;56.70;;;;;;4938274;29;20043;-59
2021/06/15 04:18:00;;;;;;;9.80;1.63;;;21.30;56.90;;;;;;4939144;29;20039;-58
2021/06/15 04:20:29;;;;;;;5.35;1.73;;;21.30;56.80;;;;;;4938653;29;20039;-59
2021/06/15 04:22:57;;;;;;;6.38;1.10;;;21.20;56.60;;;;;;4939587;29;20040;-58
2021/06/15 04:25:26;;;;;;;4.28;1.45;;;21.10;57.10;;;;;;4939031;29;20036;-58
2021/06/15 04:27:53;;;;;;;5.35;1.27;;;21.20;56.90;;;;;;4941311;29;20035;-58
2021/06/15 04:30:20;;;;;;;9.60;1.70;;;21.10;56.70;;;;;;4939475;29;20035;-58
2021/06/15 04:33:00;;;;;;;4.05;1.25;;;21.00;54.10;;;;;;4938179;29;20051;-58
2021/06/15 04:35:31;;;;;;;4.95;1.23;;;20.90;54.50;;;;;;4938463;29;20043;-58
2021/06/15 04:38:18;;;;;;;7.47;1.35;;;20.60;56.40;;;;;;4939145;29;20416;-58
2021/06/15 04:40:48;;;;;;;7.50;1.45;;;20.50;57.40;;;;;;4937568;29;20031;-59
2021/06/15 04:43:35;;;;;;;5.05;1.40;;;20.60;56.90;;;;;;4938675;29;20214;-60
2021/06/15 04:46:24;;;;;;;9.15;1.90;;;20.60;56.70;;;;;;4935745;29;20070;-59
2021/06/15 04:49:22;;;;;;;6.15;1.27;;;20.60;56.10;;;;;;4938646;29;20031;-59
2021/06/15 04:51:53;;;;;;;8.35;1.38;;;20.50;57.10;;;;;;4939084;29;20036;-59
2021/06/15 04:54:21;;;;;;;7.68;1.38;;;20.40;57.60;;;;;;4939960;29;20601;-59
2021/06/15 04:56:49;;;;;;;4.43;0.95;;;20.40;58.10;;;;;;4940675;28;20039;-59
2021/06/15 04:59:19;;;;;;;4.95;1.60;;;20.50;58.20;;;;;;4943376;29;20157;-59
2021/06/15 05:01:46;;;;;;;6.47;1.42;;;20.60;57.90;;;;;;4943627;29;20067;-59
2021/06/15 05:04:13;;;;;;;8.43;1.98;;;20.70;57.70;;;;;;4942585;29;20040;-59
2021/06/15 05:06:55;;;;;;;7.43;1.40;;;20.90;57.70;;;;;;4942015;29;20653;-59
2021/06/15 05:09:25;;;;;;;5.78;1.40;;;21.00;57.40;;;;;;4943401;29;20063;-58
2021/06/15 05:11:54;;;;;;;7.28;1.85;;;21.10;57.30;;;;;;4942734;29;20059;-58
2021/06/15 05:14:33;;;;;;;6.18;2.20;;;21.20;57.10;;;;;;4942476;29;20087;-60
2021/06/15 05:17:01;;;;;;;5.78;1.40;;;21.20;56.70;;;;;;4940944;29;20035;-59
2021/06/15 05:19:27;;;;;;;6.88;1.20;;;21.20;56.50;;;;;;4943160;29;20039;-59
2021/06/15 05:21:54;;;;;;;6.03;1.42;;;21.30;56.50;;;;;;4943818;29;20062;-58
2021/06/15 05:24:48;;;;;;;6.15;1.38;;;21.30;56.60;;;;;;4941488;29;20424;-59
2021/06/15 05:27:16;;;;;;;6.88;1.58;;;21.40;56.30;;;;;;4941638;29;20596;-59
2021/06/15 05:29:42;;;;;;;5.90;1.35;;;21.40;56.40;;;;;;4924088;29;20052;-59
2021/06/15 05:32:10;;;;;;;6.88;1.50;;;21.40;56.30;;;;;;4941629;29;21000;-59
2021/06/15 05:34:36;;;;;;;7.28;1.63;;;21.40;55.10;;;;;;4940882;29;20090;-59
2021/06/15 05:37:03;;;;;;;5.03;1.40;;;21.20;53.40;;;;;;4942324;29;20044;-58
2021/06/15 05:39:30;;;;;;;6.20;1.33;;;21.20;55.20;;;;;;4942011;29;20041;-58
2021/06/15 05:41:55;;;;;;;5.38;1.30;;;21.20;56.00;;;;;;4940113;29;20523;-59
2021/06/15 05:44:21;;;;;;;4.15;1.27;;;21.30;56.30;;;;;;4941889;29;20043;-59
2021/06/15 05:46:47;;;;;;;10.70;1.70;;;21.30;55.90;;;;;;4941178;29;20047;-59
2021/06/15 05:49:13;;;;;;;8.32;1.73;;;21.20;55.80;;;;;;4942101;29;20039;-59
2021/06/15 05:51:39;;;;;;;8.95;2.88;;;21.20;54.80;;;;;;4941544;29;22305;-59
2021/06/15 05:54:06;;;;;;;6.25;1.45;;;21.10;55.70;;;;;;4941263;29;20047;-60
2021/06/15 05:56:33;;;;;;;6.03;1.73;;;21.10;55.00;;;;;;4941358;29;20047;-63
2021/06/15 05:58:59;;;;;;;10.15;2.45;;;21.10;56.20;;;;;;4942488;29;21054;-63
2021/06/15 06:01:26;;;;;;;12.45;2.33;;;21.10;56.90;;;;;;4922907;29;20049;-62
2021/06/15 06:04:07;;;;;;;11.80;2.20;;;21.20;54.50;;;;;;4941567;28;20035;-63
2021/06/15 06:09:18;;;;;;;12.73;2.22;;;20.90;55.60;;;;;;4940213;28;20087;-63
2021/06/15 06:11:44;;;;;;;12.38;2.40;;;20.80;55.50;;;;;;4939642;29;20055;-63
2021/06/15 06:14:10;;;;;;;11.20;2.78;;;20.60;55.20;;;;;;4941333;29;20043;-61
2021/06/15 06:16:36;;;;;;;12.65;1.88;;;20.50;57.30;;;;;;4940216;29;20488;-61
2021/06/15 06:19:04;;;;;;;9.45;2.47;;;20.50;55.60;;;;;;4941084;29;20035;-60
2021/06/15 06:21:34;;;;;;;12.27;2.72;;;20.30;54.10;;;;;;4939125;29;20086;-61
2021/06/15 06:24:01;;;;;;;8.32;1.45;;;20.10;54.70;;;;;;4941035;29;20047;-60
2021/06/15 06:26:27;;;;;;;10.45;1.95;;;20.00;56.00;;;;;;4940098;29;20472;-59
2021/06/15 06:28:53;;;;;;;9.35;2.03;;;20.00;56.80;;;;;;4942146;29;20059;-58
2021/06/15 06:31:19;;;;;;;12.40;2.03;;;19.90;57.50;;;;;;4925387;29;20031;-58
2021/06/15 06:33:46;;;;;;;6.65;1.60;;;20.00;56.20;;;;;;4940670;29;20071;-58
2021/06/15 06:36:11;;;;;;;5.53;1.20;;;20.00;54.00;;;;;;4940423;29;20078;-58
2021/06/15 06:38:37;;;;;;;11.20;2.70;;;20.10;53.30;;;;;;4940501;29;20086;-58
2021/06/15 06:41:03;;;;;;;10.25;1.90;;;20.10;53.70;;;;;;4940648;29;20490;-58
2021/06/15 06:43:29;;;;;;;7.82;1.90;;;20.20;53.50;;;;;;4940067;29;20046;-58
2021/06/15 06:45:55;;;;;;;7.85;1.80;;;20.40;54.20;;;;;;4940932;29;20089;-58
2021/06/15 06:48:21;;;;;;;9.70;2.53;;;20.70;55.30;;;;;;4941842;29;20039;-58
2021/06/15 06:50:47;;;;;;;8.65;2.15;;;21.20;55.10;;;;;;4940251;29;20043;-58
2021/06/15 06:53:13;;;;;;;8.65;2.53;;;21.60;54.30;;;;;;4940192;29;20035;-58
2021/06/15 06:55:38;;;;;;;6.28;2.55;;;22.10;52.70;;;;;;4939954;29;22260;-58
2021/06/15 06:58:05;;;;;;;9.65;2.13;;;22.40;52.60;;;;;;4940044;29;20067;-58
2021/06/15 07:00:31;;;;;;;6.40;1.70;;;22.70;52.50;;;;;;4937136;28;20139;-58
2021/06/15 07:02:57;;;;;;;10.40;1.95;;;23.10;51.20;;;;;;4940455;29;20050;-59
2021/06/15 07:05:23;;;;;;;9.45;1.77;;;23.10;47.60;;;;;;4939103;29;20031;-58
2021/06/15 07:07:51;;;;;;;10.55;2.22;;;22.90;47.50;;;;;;4939046;29;20066;-58
2021/06/15 07:10:19;;;;;;;7.38;1.80;;;22.80;48.10;;;;;;4940136;29;20047;-58
2021/06/15 07:12:45;;;;;;;5.75;1.67;;;22.80;47.00;;;;;;4939448;29;20110;-58
2021/06/15 07:15:11;;;;;;;10.05;1.73;;;22.80;47.20;;;;;;4939382;29;20476;-58
2021/06/15 07:17:37;;;;;;;7.13;1.83;;;22.90;47.70;;;;;;4941276;29;20043;-58
2021/06/15 07:20:05;;;;;;;8.05;2.10;;;23.10;47.30;;;;;;4941137;28;20622;-58
2021/06/15 07:22:31;;;;;;;5.88;1.48;;;23.30;45.90;;;;;;4939212;29;20130;-58
2021/06/15 07:24:57;;;;;;;8.65;2.10;;;23.50;46.50;;;;;;4922386;29;20600;-58
2021/06/15 07:27:43;;;;;;;8.40;1.80;;;23.70;46.10;;;;;;4926017;29;20886;-58
2021/06/15 07:30:10;;;;;;;8.20;1.48;;;23.80;45.30;;;;;;4939221;29;20416;-59
2021/06/15 07:32:57;;;;;;;7.22;1.88;;;23.80;44.10;;;;;;4925728;29;20051;-58
2021/06/15 07:35:43;;;;;;;5.47;1.52;;;23.80;43.50;;;;;;4925004;29;20055;-61
2021/06/15 07:38:29;;;;;;;9.27;1.80;;;23.80;43.90;;;;;;4925048;29;20079;-62
2021/06/15 07:40:56;;;;;;;7.18;2.45;;;23.80;44.90;;;;;;4939761;29;20045;-62
2021/06/15 07:43:22;;;;;;;7.28;2.67;;;24.10;46.10;;;;;;4919971;29;20039;-60
2021/06/15 07:46:08;;;;;;;30.30;17.23;;;24.40;45.00;;;;;;4925019;29;20079;-58
2021/06/15 07:48:53;;;;;;;30.45;21.98;;;24.70;44.30;;;;;;4912812;29;20051;-58
2021/06/15 07:51:35;;;;;;;38.85;29.30;;;25.00;43.40;;;;;;4938852;29;20043;-58
2021/06/15 07:54:20;;;;;;;8.52;5.10;;;25.10;42.30;;;;;;4924037;29;20055;-59
2021/06/15 07:57:07;;;;;;;12.73;3.60;;;25.20;42.70;;;;;;4912906;29;20061;-59
2021/06/15 07:59:42;;;;;;;7.20;2.40;;;25.40;42.30;;;;;;4938256;29;20051;-60
2021/06/15 08:02:28;;;;;;;6.13;2.28;;;25.60;41.50;;;;;;4925051;28;20110;-60
2021/06/15 08:04:54;;;;;;;8.65;2.40;;;25.80;41.00;;;;;;4938053;29;20040;-60
2021/06/15 08:07:20;;;;;;;6.18;2.05;;;26.10;41.00;;;;;;4938764;29;20035;-59
2021/06/15 08:09:46;;;;;;;6.93;2.38;;;26.20;40.20;;;;;;4938624;29;20041;-60
2021/06/15 08:12:15;;;;;;;11.93;2.72;;;26.20;40.30;;;;;;4939809;29;20044;-59
2021/06/15 08:14:57;;;;;;;7.88;2.92;;;26.30;39.70;;;;;;4940415;29;20047;-60
2021/06/15 08:17:45;;;;;;;12.57;3.13;;;26.20;39.80;;;;;;4923304;29;20186;-59
2021/06/15 08:20:12;;;;;;;6.68;1.88;;;26.20;40.00;;;;;;4937290;29;20089;-59
2021/06/15 08:22:38;;;;;;;5.75;1.80;;;26.40;40.00;;;;;;4938042;29;20047;-59
2021/06/15 08:25:24;;;;;;;12.70;2.35;;;26.60;40.00;;;;;;4937375;29;20364;-59
2021/06/15 08:27:50;;;;;;;5.57;1.73;;;26.70;39.80;;;;;;4939279;29;20035;-59
2021/06/15 08:30:36;;;;;;;6.68;1.88;;;26.90;39.80;;;;;;4925955;29;20399;-59
2021/06/15 08:33:22;;;;;;;8.20;1.60;;;27.00;39.50;;;;;;4927463;29;20055;-59
2021/06/15 08:35:48;;;;;;;7.45;2.20;;;27.20;39.00;;;;;;4943401;29;20049;-58
2021/06/15 08:38:33;;;;;;;5.68;1.80;;;27.30;38.60;;;;;;4927798;29;20063;-59
2021/06/15 08:40:59;;;;;;;5.50;1.80;;;27.40;39.10;;;;;;4940527;29;20169;-59
2021/06/15 08:43:25;;;;;;;11.10;1.65;;;27.40;38.70;;;;;;4942017;29;20047;-59
2021/06/15 08:45:51;;;;;;;7.65;1.85;;;27.50;39.00;;;;;;4943795;29;20836;-59
2021/06/15 08:48:17;;;;;;;6.85;1.40;;;27.60;38.50;;;;;;4942599;29;20704;-59
2021/06/15 08:50:44;;;;;;;5.85;1.83;;;27.60;37.90;;;;;;4941240;29;20166;-59
2021/06/15 08:53:10;;;;;;;8.88;2.33;;;27.60;38.10;;;;;;4942514;29;20043;-59
2021/06/15 08:55:37;;;;;;;5.10;1.45;;;27.60;38.60;;;;;;4942489;29;20070;-59
2021/06/15 08:58:25;;;;;;;5.25;1.70;;;27.70;38.70;;;;;;4942570;29;20035;-59
2021/06/15 09:00:51;;;;;;;6.20;1.90;;;27.80;38.40;;;;;;4941754;29;20032;-59
2021/06/15 09:03:16;;;;;;;7.32;1.42;;;27.70;38.40;;;;;;4943030;29;20554;-59
2021/06/15 09:05:42;;;;;;;6.68;1.38;;;27.80;38.50;;;;;;4943696;29;20628;-59
2021/06/15 09:08:12;;;;;;;5.72;1.80;;;27.90;38.30;;;;;;4941347;29;20038;-59
2021/06/15 09:10:41;;;;;;;7.25;1.40;;;28.00;38.40;;;;;;4941649;29;20050;-60
2021/06/15 09:13:30;;;;;;;8.25;1.92;;;28.10;37.80;;;;;;4925084;29;20205;-60
2021/06/15 09:15:57;;;;;;;7.90;1.65;;;28.20;38.40;;;;;;4940572;29;20063;-59
2021/06/15 09:18:29;;;;;;;6.95;1.65;;;28.40;38.60;;;;;;4924768;29;20047;-59
2021/06/15 09:20:59;;;;;;;5.65;1.75;;;28.40;38.10;;;;;;4925031;29;20354;-59
2021/06/15 09:23:36;;;;;;;6.05;1.52;;;28.20;37.70;;;;;;4943573;29;20041;-58
2021/06/15 09:26:03;;;;;;;6.93;1.45;;;28.00;38.50;;;;;;4940622;29;20043;-60
2021/06/15 09:28:29;;;;;;;8.88;1.83;;;27.70;38.80;;;;;;4941629;29;20572;-60
2021/06/15 09:31:06;;;;;;;6.80;1.50;;;27.40;39.20;;;;;;4943100;29;20101;-60
2021/06/15 09:33:38;;;;;;;11.52;1.70;;;27.10;39.30;;;;;;4941957;29;20043;-60
2021/06/15 09:36:28;;;;;;;11.30;1.50;;;27.00;39.50;;;;;;4941455;29;20047;-60
2021/06/15 09:38:58;;;;;;;7.82;1.60;;;26.90;39.30;;;;;;4941742;29;20063;-60
2021/06/15 09:41:43;;;;;;;7.43;1.58;;;27.10;38.90;;;;;;4924830;29;20039;-60
2021/06/15 09:44:26;;;;;;;5.65;1.48;;;27.30;39.40;;;;;;4939822;28;20128;-60
2021/06/15 09:47:02;;;;;;;5.90;1.38;;;27.40;39.20;;;;;;4941049;29;20051;-60
2021/06/15 09:49:33;;;;;;;5.72;1.17;;;27.40;39.10;;;;;;4942243;29;20498;-60
2021/06/15 09:52:29;;;;;;;8.20;1.65;;;27.30;39.20;;;;;;4941607;29;20136;-59
2021/06/15 09:55:06;;;;;;;8.60;2.25;;;27.10;39.30;;;;;;4938901;29;20134;-60
2021/06/15 09:57:41;;;;;;;8.00;1.58;;;26.90;39.30;;;;;;4942588;29;20043;-60
2021/06/15 10:00:13;;;;;;;7.80;1.67;;;26.80;39.30;;;;;;4923542;29;20043;-60
2021/06/15 10:02:59;;;;;;;4.43;1.25;;;26.90;39.60;;;;;;4940233;29;20052;-60
2021/06/15 10:05:32;;;;;;;8.25;1.63;;;27.00;39.30;;;;;;4922788;29;20154;-60
2021/06/15 10:08:02;;;;;;;12.07;2.08;;;27.00;39.70;;;;;;4940700;29;20043;-60
2021/06/15 10:10:31;;;;;;;8.40;1.48;;;27.00;39.50;;;;;;4939903;29;20391;-62
2021/06/15 10:12:57;;;;;;;6.72;1.75;;;26.90;39.50;;;;;;4940909;29;20518;-61
2021/06/15 10:15:23;;;;;;;5.43;1.30;;;26.90;39.50;;;;;;4943547;29;20036;-60
2021/06/15 10:17:49;;;;;;;6.18;1.50;;;26.90;39.50;;;;;;4940936;29;20527;-60
2021/06/15 10:20:19;;;;;;;14.43;1.95;;;26.90;39.60;;;;;;4940815;29;20134;-60
2021/06/15 10:22:46;;;;;;;10.68;2.15;;;26.80;39.60;;;;;;4940694;29;20094;-66
2021/06/15 10:25:13;;;;;;;7.50;1.63;;;26.60;39.80;;;;;;4939813;29;20050;-62
2021/06/15 10:27:40;;;;;;;169.55;151.13;;;26.20;39.80;;;;;;4940567;29;20070;-60
2021/06/15 10:30:08;;;;;;;18.02;8.65;;;25.80;40.40;;;;;;4941673;29;20055;-61
2021/06/15 10:32:34;;;;;;;8.52;2.00;;;25.50;41.00;;;;;;4940379;29;20270;-61
2021/06/15 10:35:07;;;;;;;11.10;2.92;;;25.30;41.50;;;;;;4941372;29;20039;-60
2021/06/15 10:37:34;;;;;;;8.00;1.63;;;25.10;42.10;;;;;;4941140;29;20055;-59
2021/06/15 10:40:14;;;;;;;7.63;1.88;;;25.00;41.70;;;;;;4941616;29;20036;-60
2021/06/15 10:42:43;;;;;;;9.02;3.05;;;25.00;41.50;;;;;;4923858;29;20051;-60
2021/06/15 10:45:20;;;;;;;6.80;1.95;;;24.80;42.30;;;;;;4941358;29;20138;-60
2021/06/15 10:48:04;;;;;;;5.40;1.27;;;24.90;41.50;;;;;;4940580;29;20042;-60
2021/06/15 10:50:44;;;;;;;9.35;2.33;;;24.90;41.40;;;;;;4922730;29;20122;-60
2021/06/15 10:53:11;;;;;;;8.10;1.73;;;24.80;42.00;;;;;;4940475;29;20043;-60
2021/06/15 10:55:42;;;;;;;8.70;2.45;;;24.70;42.50;;;;;;4940603;28;20040;-60
2021/06/15 10:58:08;;;;;;;7.03;1.48;;;24.70;42.40;;;;;;4939887;29;20070;-60
2021/06/15 11:00:52;;;;;;;8.52;1.95;;;24.70;42.30;;;;;;4941427;29;20151;-60
2021/06/15 11:03:20;;;;;;;6.82;1.60;;;24.70;42.50;;;;;;4941376;29;20043;-60
2021/06/15 11:05:53;;;;;;;6.40;1.80;;;24.60;42.60;;;;;;4939249;29;20047;-60
2021/06/15 11:08:28;;;;;;;6.00;1.40;;;24.40;42.60;;;;;;4940187;29;20062;-59
2021/06/15 11:10:59;;;;;;;5.70;1.88;;;24.30;42.50;;;;;;4940259;29;20035;-60
2021/06/15 11:13:49;;;;;;;6.07;1.27;;;24.20;43.00;;;;;;4940330;29;20036;-60
2021/06/15 11:16:34;;;;;;;7.90;1.70;;;24.10;43.30;;;;;;4939176;29;20043;-60
2021/06/15 11:21:47;;;;;;;6.50;1.27;;;24.10;43.40;;;;;;4942008;29;20093;-61
2021/06/15 11:24:21;;;;;;;4.43;1.33;;;24.10;43.00;;;;;;4939186;29;20114;-61
2021/06/15 11:26:48;;;;;;;5.65;1.42;;;24.00;43.10;;;;;;4939408;29;20043;-61
2021/06/15 11:29:34;;;;;;;7.43;1.70;;;24.00;43.00;;;;;;4940272;29;20138;-60
2021/06/15 11:32:20;;;;;;;9.38;1.98;;;24.00;43.80;;;;;;4940883;29;20043;-61
2021/06/15 11:34:55;;;;;;;8.85;1.38;;;24.00;43.60;;;;;;4939635;29;20050;-61
2021/06/15 11:37:27;;;;;;;5.32;1.40;;;23.90;43.60;;;;;;4922980;29;20043;-61
2021/06/15 11:39:53;;;;;;;5.55;1.90;;;23.80;44.50;;;;;;4930906;29;20032;-63
2021/06/15 11:42:29;;;;;;;9.57;1.80;;;23.80;44.50;;;;;;4922199;29;20086;-63
2021/06/15 11:45:29;;;;;;;5.65;1.55;;;24.00;44.30;;;;;;4939520;29;20399;-63
2021/06/15 11:48:15;;;;;;;6.85;1.73;;;24.10;43.60;;;;;;4940192;29;20066;-63
2021/06/15 11:50:45;;;;;;;6.63;1.73;;;24.00;43.90;;;;;;4939701;29;20083;-62
2021/06/15 11:53:19;;;;;;;6.85;1.80;;;24.10;43.90;;;;;;4938454;29;20307;-62
2021/06/15 11:55:50;;;;;;;5.43;1.70;;;24.10;43.90;;;;;;4937760;29;20562;-62
2021/06/15 11:58:18;;;;;;;7.70;1.65;;;24.10;43.60;;;;;;4940537;29;20050;-64
2021/06/15 12:01:01;;;;;;;7.22;1.63;;;24.10;44.30;;;;;;4940882;29;20031;-68
2021/06/15 12:03:32;;;;;;;7.05;1.67;;;24.10;43.50;;;;;;4939308;29;20101;-64
2021/06/15 12:05:59;;;;;;;5.18;1.50;;;24.10;43.50;;;;;;4938682;28;20548;-62
2021/06/15 12:08:32;;;;;;;8.70;1.77;;;24.10;43.50;;;;;;4939469;29;20409;-62
2021/06/15 12:10:59;;;;;;;9.45;1.42;;;24.20;43.60;;;;;;4940514;29;20040;-62
2021/06/15 12:13:32;;;;;;;12.82;1.45;;;24.20;43.70;;;;;;4938638;29;20402;-63
2021/06/15 12:16:05;;;;;;;8.30;1.40;;;24.20;43.20;;;;;;4939008;29;20593;-62
2021/06/15 12:18:37;;;;;;;6.38;1.65;;;24.20;43.00;;;;;;4939429;29;20062;-64
2021/06/15 12:21:10;;;;;;;6.18;1.30;;;24.30;42.90;;;;;;4939989;29;20035;-64
2021/06/15 12:23:39;;;;;;;4.72;1.38;;;24.40;42.90;;;;;;4941015;29;20051;-63
2021/06/15 12:26:12;;;;;;;7.15;1.38;;;24.40;43.20;;;;;;4940944;29;20094;-63
2021/06/15 12:28:42;;;;;;;6.95;1.40;;;24.40;43.00;;;;;;4939560;29;20042;-63
2021/06/15 12:31:14;;;;;;;11.15;1.60;;;24.30;43.00;;;;;;4939030;29;20043;-62
2021/06/15 12:33:41;;;;;;;5.93;1.67;;;24.20;42.90;;;;;;4938545;29;20054;-62
2021/06/15 12:36:09;;;;;;;8.02;1.98;;;24.20;43.00;;;;;;4939652;29;20036;-60
2021/06/15 12:38:37;;;;;;;4.22;1.55;;;24.10;42.40;;;;;;4939583;29;20047;-61
2021/06/15 12:41:09;;;;;;;6.38;1.25;;;23.80;42.90;;;;;;4923555;29;20043;-62
2021/06/15 12:43:37;;;;;;;6.38;1.40;;;23.70;43.30;;;;;;4937947;29;20078;-62
2021/06/15 12:46:10;;;;;;;6.63;1.33;;;23.50;43.60;;;;;;4921417;29;20400;-61
2021/06/15 12:48:44;;;;;;;6.07;1.35;;;23.40;43.10;;;;;;4938015;29;20047;-61
2021/06/15 12:51:12;;;;;;;4.82;1.20;;;23.40;43.50;;;;;;4939705;29;20039;-61
2021/06/15 12:53:40;;;;;;;4.55;0.82;;;23.30;43.20;;;;;;4937387;29;20157;-61
2021/06/15 12:56:27;;;;;;;6.82;1.67;;;23.30;43.20;;;;;;4939883;29;20520;-61
2021/06/15 12:58:57;;;;;;;4.40;1.33;;;23.10;42.80;;;;;;4939787;29;20039;-61
2021/06/15 13:01:33;;;;;;;7.10;1.17;;;23.10;44.50;;;;;;4938266;29;20046;-61
2021/06/15 13:03:59;;;;;;;8.23;2.35;;;23.10;43.70;;;;;;4938216;29;20040;-61
2021/06/15 13:06:27;;;;;;;6.60;1.50;;;23.10;44.00;;;;;;4939019;29;20042;-61
2021/06/15 13:08:54;;;;;;;5.03;1.40;;;23.00;44.40;;;;;;4921082;29;20040;-61
2021/06/15 13:11:23;;;;;;;4.80;1.23;;;23.10;43.50;;;;;;4922040;29;20174;-61
2021/06/15 13:14:03;;;;;;;5.72;1.60;;;23.00;44.00;;;;;;4939362;29;20067;-62
2021/06/15 13:16:38;;;;;;;7.50;1.50;;;22.90;43.90;;;;;;4937202;29;20043;-62